Time;durP1;ratioP1;P1;durP2;ratioP2;P2;SDS_P1;SDS_P2;PMS_P1;PMS_P2;Temp;Humidity;BMP_temperature;BMP_pressure;BME280_temperature;BME280_humidity;BME280_pressure;Samples;Min_cycle;Max_cycle;Signal;HPM_P1;HPM_P2
2021/05/08 00:01:27;;;;;;;11.23;5.00;;;;;;;;;;8325199;28;20390;-71
2021/05/08 00:05:32;;;;;;;8.65;4.10;;;;;;;;;;8325191;28;20565;-71
2021/05/08 00:09:36;;;;;;;9.02;4.05;;;;;;;;;;8308393;28;20366;-70
2021/05/08 00:13:44;;;;;;;7.28;4.40;;;;;;;;;;8324391;28;20372;-70
2021/05/08 00:17:49;;;;;;;6.47;4.25;;;;;;;;;;8324253;28;20426;-71
2021/05/08 00:21:54;;;;;;;9.68;5.03;;;;;;;;;;8305976;28;20352;-70
2021/05/08 00:25:58;;;;;;;5.93;3.67;;;;;;;;;;8324132;28;20476;-70
2021/05/08 00:30:01;;;;;;;8.90;3.70;;;;;;;;;;8323641;28;20375;-71
2021/05/08 00:34:06;;;;;;;10.63;3.75;;;;;;;;;;8323284;28;20378;-71
2021/05/08 00:38:09;;;;;;;8.27;4.15;;;;;;;;;;8323944;28;20508;-71
2021/05/08 00:42:14;;;;;;;14.77;6.32;;;;;;;;;;8305561;28;20055;-70
2021/05/08 00:46:18;;;;;;;6.05;3.83;;;;;;;;;;8324256;28;20542;-70
2021/05/08 00:50:23;;;;;;;5.78;3.80;;;;;;;;;;8322380;28;20362;-72
2021/05/08 00:54:28;;;;;;;8.32;3.90;;;;;;;;;;8325855;28;20081;-70
2021/05/08 00:58:33;;;;;;;5.05;3.35;;;;;;;;;;8304502;28;20459;-70
2021/05/08 01:02:37;;;;;;;6.38;3.63;;;;;;;;;;8291987;28;20436;-71
2021/05/08 01:06:42;;;;;;;6.68;3.45;;;;;;;;;;8305947;28;20504;-70
2021/05/08 01:10:47;;;;;;;5.57;3.40;;;;;;;;;;8320996;28;20359;-70
2021/05/08 01:14:53;;;;;;;6.10;3.28;;;;;;;;;;8289351;28;20370;-71
2021/05/08 01:19:00;;;;;;;5.38;3.13;;;;;;;;;;8304495;28;20469;-71
2021/05/08 01:23:06;;;;;;;12.68;3.33;;;;;;;;;;8323290;28;20478;-71
2021/05/08 01:27:10;;;;;;;4.35;2.58;;;;;;;;;;8322061;28;20052;-70
2021/05/08 01:31:15;;;;;;;5.60;2.97;;;;;;;;;;8321830;28;20480;-71
2021/05/08 01:35:19;;;;;;;6.45;2.80;;;;;;;;;;8306458;28;20348;-71
2021/05/08 01:39:24;;;;;;;5.20;2.47;;;;;;;;;;8305157;28;20379;-71
2021/05/08 01:43:29;;;;;;;5.13;2.80;;;;;;;;;;8321806;28;20370;-72
2021/05/08 01:47:33;;;;;;;4.20;2.75;;;;;;;;;;8298265;28;20374;-71
2021/05/08 01:51:38;;;;;;;4.60;2.58;;;;;;;;;;8273216;28;20071;-71
2021/05/08 01:55:43;;;;;;;4.13;2.63;;;;;;;;;;8273909;28;20487;-71
2021/05/08 01:59:53;;;;;;;5.18;3.13;;;;;;;;;;8272897;28;20477;-70
2021/05/08 02:03:58;;;;;;;4.50;2.70;;;;;;;;;;8294602;28;20071;-70
2021/05/08 02:08:06;;;;;;;5.10;2.75;;;;;;;;;;8261107;28;20101;-72
2021/05/08 02:12:11;;;;;;;5.60;3.67;;;;;;;;;;8296067;28;20057;-70
2021/05/08 02:16:16;;;;;;;5.70;2.88;;;;;;;;;;8277010;28;20400;-70
2021/05/08 02:20:26;;;;;;;7.28;2.72;;;;;;;;;;8277782;28;20078;-70
2021/05/08 02:24:31;;;;;;;5.55;3.35;;;;;;;;;;8278457;28;20348;-70
2021/05/08 02:28:36;;;;;;;5.55;2.97;;;;;;;;;;8277272;28;20475;-70
2021/05/08 02:32:42;;;;;;;5.20;3.40;;;;;;;;;;8294647;28;20509;-70
2021/05/08 02:36:46;;;;;;;5.57;3.20;;;;;;;;;;8277667;28;20362;-71
2021/05/08 02:40:51;;;;;;;5.28;3.08;;;;;;;;;;8275437;28;20048;-71
2021/05/08 02:44:56;;;;;;;5.85;3.30;;;;;;;;;;8296409;28;20379;-70
2021/05/08 02:49:01;;;;;;;3.97;2.97;;;;;;;;;;8277839;28;20076;-70
2021/05/08 02:53:05;;;;;;;8.48;3.20;;;;;;;;;;8259479;28;20448;-71
2021/05/08 02:57:12;;;;;;;4.75;3.17;;;;;;;;;;8294660;28;20383;-70
2021/05/08 03:01:17;;;;;;;6.13;3.50;;;;;;;;;;8277618;28;20349;-70
2021/05/08 03:05:22;;;;;;;6.05;3.20;;;;;;;;;;8294067;28;20061;-72
2021/05/08 03:09:32;;;;;;;7.53;4.00;;;;;;;;;;8276551;28;20485;-71
2021/05/08 03:13:37;;;;;;;8.98;3.90;;;;;;;;;;8258088;28;20063;-71
2021/05/08 03:17:42;;;;;;;7.47;4.43;;;;;;;;;;8295523;28;20466;-71
2021/05/08 03:21:47;;;;;;;6.35;4.00;;;;;;;;;;8276509;28;20502;-71
2021/05/08 03:25:51;;;;;;;6.40;3.95;;;;;;;;;;8293743;28;20079;-70
2021/05/08 03:29:56;;;;;;;6.78;3.63;;;;;;;;;;8274592;28;20352;-70
2021/05/08 03:34:00;;;;;;;6.07;3.83;;;;;;;;;;8274648;28;20455;-70
2021/05/08 03:38:05;;;;;;;8.13;4.38;;;;;;;;;;8275118;28;20071;-71
2021/05/08 03:42:10;;;;;;;12.13;4.30;;;;;;;;;;8295521;28;20079;-71
2021/05/08 03:46:15;;;;;;;6.07;3.70;;;;;;;;;;8274270;28;20079;-70
2021/05/08 03:50:19;;;;;;;6.88;3.90;;;;;;;;;;8291988;28;20071;-70
2021/05/08 03:54:25;;;;;;;5.47;3.90;;;;;;;;;;8275095;28;20471;-70
2021/05/08 03:58:29;;;;;;;8.80;4.13;;;;;;;;;;8274903;28;20079;-72
2021/05/08 04:02:33;;;;;;;7.10;4.43;;;;;;;;;;8292804;28;20375;-70
2021/05/08 04:06:38;;;;;;;6.90;4.28;;;;;;;;;;8291603;28;20390;-70
2021/05/08 04:10:48;;;;;;;6.85;4.68;;;;;;;;;;8291902;28;20066;-70
2021/05/08 04:14:52;;;;;;;5.63;3.67;;;;;;;;;;8290953;28;20060;-70
2021/05/08 04:18:56;;;;;;;10.63;4.35;;;;;;;;;;8273558;28;20052;-70
2021/05/08 04:23:01;;;;;;;6.07;4.25;;;;;;;;;;8290767;28;20395;-70
2021/05/08 04:27:06;;;;;;;7.65;5.10;;;;;;;;;;8274518;28;20463;-71
2021/05/08 04:31:11;;;;;;;13.60;7.00;;;;;;;;;;8291641;28;20352;-71
2021/05/08 04:35:16;;;;;;;8.88;4.82;;;;;;;;;;8290981;28;20477;-70
2021/05/08 04:39:20;;;;;;;9.27;4.55;;;;;;;;;;8274952;28;20060;-70
2021/05/08 04:43:24;;;;;;;7.78;4.40;;;;;;;;;;8293277;28;20048;-71
2021/05/08 04:47:29;;;;;;;6.78;3.92;;;;;;;;;;8291239;28;20463;-70
2021/05/08 04:51:33;;;;;;;7.78;4.03;;;;;;;;;;8292704;28;20052;-72
2021/05/08 04:55:37;;;;;;;6.85;4.28;;;;;;;;;;8292109;28;20466;-70
2021/05/08 04:59:42;;;;;;;7.40;4.70;;;;;;;;;;8290779;28;20460;-71
2021/05/08 05:03:46;;;;;;;8.00;4.10;;;;;;;;;;8289834;28;20044;-70
2021/05/08 05:07:50;;;;;;;10.38;6.03;;;;;;;;;;8292301;28;20483;-71
2021/05/08 05:11:55;;;;;;;6.00;4.40;;;;;;;;;;8292067;28;20406;-71
2021/05/08 05:15:59;;;;;;;9.10;4.32;;;;;;;;;;8273201;28;20459;-70
2021/05/08 05:20:07;;;;;;;10.68;4.40;;;;;;;;;;8272470;28;20075;-71
2021/05/08 05:24:11;;;;;;;8.13;3.97;;;;;;;;;;8272447;28;20060;-70
2021/05/08 05:28:27;;;;;;;6.93;3.55;;;;;;;;;;8292344;28;20363;-72
2021/05/08 05:32:32;;;;;;;6.20;3.80;;;;;;;;;;8289326;28;20491;-72
2021/05/08 05:36:38;;;;;;;8.38;3.65;;;;;;;;;;8294679;28;20489;-70
2021/05/08 05:40:42;;;;;;;5.55;2.80;;;;;;;;;;8295832;28;20386;-72
2021/05/08 05:44:46;;;;;;;6.03;2.95;;;;;;;;;;8295531;28;20479;-70
2021/05/08 05:48:51;;;;;;;5.72;3.05;;;;;;;;;;8279766;28;20406;-71
2021/05/08 05:52:55;;;;;;;6.45;3.10;;;;;;;;;;8296515;28;20122;-70
2021/05/08 05:56:59;;;;;;;5.00;2.50;;;;;;;;;;8295437;28;20155;-71
2021/05/08 06:01:04;;;;;;;4.05;2.58;;;;;;;;;;8296052;28;20075;-70
2021/05/08 06:05:09;;;;;;;4.50;2.30;;;;;;;;;;8297083;28;20325;-71
2021/05/08 06:09:13;;;;;;;5.70;3.05;;;;;;;;;;8277512;28;20111;-71
2021/05/08 06:13:17;;;;;;;6.20;2.40;;;;;;;;;;8294956;28;20079;-71
2021/05/08 06:17:21;;;;;;;8.02;3.70;;;;;;;;;;8294963;28;20398;-72
2021/05/08 06:21:27;;;;;;;11.70;4.30;;;;;;;;;;8295123;28;20391;-71
2021/05/08 06:25:31;;;;;;;8.98;2.95;;;;;;;;;;8276660;28;20387;-71
2021/05/08 06:29:40;;;;;;;4.65;2.22;;;;;;;;;;8296532;28;20496;-71
2021/05/08 06:33:44;;;;;;;7.40;2.92;;;;;;;;;;8277622;28;20452;-71
2021/05/08 06:37:50;;;;;;;7.03;2.85;;;;;;;;;;8278516;28;20402;-71
2021/05/08 06:41:54;;;;;;;5.95;2.65;;;;;;;;;;8276674;28;20413;-70
2021/05/08 06:45:59;;;;;;;3.83;2.08;;;;;;;;;;8295001;28;20356;-70
2021/05/08 06:50:04;;;;;;;3.20;1.80;;;;;;;;;;8291642;28;20091;-71
2021/05/08 06:54:08;;;;;;;4.03;2.10;;;;;;;;;;8293085;28;20049;-71
2021/05/08 06:58:13;;;;;;;3.47;1.75;;;;;;;;;;8294148;28;20462;-71
2021/05/08 07:02:17;;;;;;;5.72;2.20;;;;;;;;;;8294113;28;20443;-72
2021/05/08 07:06:24;;;;;;;7.47;3.50;;;;;;;;;;8275327;28;20387;-71
2021/05/08 07:10:29;;;;;;;4.65;2.22;;;;;;;;;;8293886;28;20075;-71
2021/05/08 07:14:33;;;;;;;5.35;1.95;;;;;;;;;;8294660;28;20382;-70
2021/05/08 07:18:36;;;;;;;5.93;2.28;;;;;;;;;;8293855;28;20470;-71
2021/05/08 07:22:41;;;;;;;5.63;2.05;;;;;;;;;;8277675;28;20048;-71
2021/05/08 07:26:45;;;;;;;4.85;2.03;;;;;;;;;;8294093;28;20394;-71
2021/05/08 07:30:53;;;;;;;6.22;2.65;;;;;;;;;;8294778;28;20356;-71
2021/05/08 07:34:58;;;;;;;5.22;2.95;;;;;;;;;;8292323;28;20463;-70
2021/05/08 07:39:03;;;;;;;12.93;3.15;;;;;;;;;;8292111;28;20405;-70
2021/05/08 07:43:11;;;;;;;7.68;4.35;;;;;;;;;;8292075;28;20463;-69
2021/05/08 07:47:15;;;;;;;4.18;2.72;;;;;;;;;;8292017;28;20483;-69
2021/05/08 07:51:20;;;;;;;8.05;5.00;;;;;;;;;;8275518;28;20375;-70
2021/05/08 07:55:25;;;;;;;10.95;5.57;;;;;;;;;;8291605;28;20074;-69
2021/05/08 07:59:30;;;;;;;8.90;2.38;;;;;;;;;;8292222;28;20382;-68
2021/05/08 08:03:34;;;;;;;4.00;1.95;;;;;;;;;;8274106;28;20373;-70
2021/05/08 08:07:39;;;;;;;3.53;1.90;;;;;;;;;;8304834;28;20347;-69
2021/05/08 08:11:44;;;;;;;6.13;2.42;;;;;;;;;;8296257;28;20048;-69
2021/05/08 08:15:47;;;;;;;11.45;4.65;;;;;;;;;;8323857;28;20356;-70
2021/05/08 08:19:51;;;;;;;6.43;1.50;;;;;;;;;;8325854;28;20454;-70
2021/05/08 08:23:56;;;;;;;8.30;2.42;;;;;;;;;;8305926;28;20481;-70
2021/05/08 08:28:01;;;;;;;60.30;17.77;;;;;;;;;;8323191;28;20455;-70
2021/05/08 08:32:06;;;;;;;38.90;11.05;;;;;;;;;;8323115;28;20470;-70
2021/05/08 08:36:11;;;;;;;14.60;4.05;;;;;;;;;;8305739;28;20387;-70
2021/05/08 08:40:15;;;;;;;11.52;2.97;;;;;;;;;;8324709;28;20458;-69
2021/05/08 08:44:20;;;;;;;4.53;2.97;;;;;;;;;;8323649;28;20467;-69
2021/05/08 08:48:25;;;;;;;6.63;2.83;;;;;;;;;;8305184;28;20051;-69
2021/05/08 08:52:30;;;;;;;3.90;2.17;;;;;;;;;;8305146;28;20378;-70
2021/05/08 08:56:42;;;;;;;5.07;2.20;;;;;;;;;;8323295;28;20374;-70
2021/05/08 09:00:46;;;;;;;11.32;3.28;;;;;;;;;;8323085;28;20417;-70
2021/05/08 09:04:50;;;;;;;3.22;1.70;;;;;;;;;;8305370;28;20387;-70
2021/05/08 09:08:57;;;;;;;7.80;2.75;;;;;;;;;;8321846;28;20463;-70
2021/05/08 09:13:05;;;;;;;8.05;3.35;;;;;;;;;;8328546;28;20048;-70
2021/05/08 09:17:25;;;;;;;5.30;2.10;;;;;;;;;;8330725;28;20450;-69
2021/05/08 09:21:31;;;;;;;13.65;5.28;;;;;;;;;;8329457;28;20402;-69
2021/05/08 09:25:35;;;;;;;12.55;5.10;;;;;;;;;;8311927;28;20048;-69
2021/05/08 09:29:40;;;;;;;15.18;5.68;;;;;;;;;;8313004;28;20593;-69
2021/05/08 09:33:53;;;;;;;4.78;2.25;;;;;;;;;;8331871;28;20398;-71
2021/05/08 09:38:17;;;;;;;5.55;3.28;;;;;;;;;;8312372;28;20060;-70
2021/05/08 09:42:49;;;;;;;5.15;2.15;;;;;;;;;;8312571;28;20466;-71
2021/05/08 09:46:55;;;;;;;8.70;3.83;;;;;;;;;;8329251;28;20374;-73
2021/05/08 09:51:24;;;;;;;5.78;2.10;;;;;;;;;;8311746;28;20405;-69
2021/05/08 09:55:36;;;;;;;7.50;3.15;;;;;;;;;;8328200;28;20444;-70
2021/05/08 09:59:42;;;;;;;4.20;2.63;;;;;;;;;;8294121;28;20052;-71
2021/05/08 10:03:47;;;;;;;5.18;2.20;;;;;;;;;;8328454;28;20513;-69
2021/05/08 10:07:52;;;;;;;4.10;2.03;;;;;;;;;;8329779;28;20382;-70
2021/05/08 10:12:00;;;;;;;6.78;2.88;;;;;;;;;;8309906;28;20150;-69
2021/05/08 10:16:04;;;;;;;3.33;2.33;;;;;;;;;;8311020;28;20339;-69
2021/05/08 10:20:14;;;;;;;3.97;2.08;;;;;;;;;;8313116;28;20374;-69
2021/05/08 10:24:21;;;;;;;6.53;3.22;;;;;;;;;;8328986;28;20493;-70
2021/05/08 10:28:26;;;;;;;13.77;3.50;;;;;;;;;;8329202;28;20370;-70
2021/05/08 10:32:30;;;;;;;6.18;2.08;;;;;;;;;;8327104;28;21042;-70
2021/05/08 10:37:08;;;;;;;7.47;4.22;;;;;;;;;;8310423;28;20458;-70
2021/05/08 10:41:15;;;;;;;3.13;2.07;;;;;;;;;;8327887;28;20510;-72
2021/05/08 10:45:19;;;;;;;4.10;2.20;;;;;;;;;;8312291;28;20480;-70
2021/05/08 10:49:23;;;;;;;12.30;4.88;;;;;;;;;;8328596;28;20682;-70
2021/05/08 10:53:44;;;;;;;19.30;3.72;;;;;;;;;;8325620;28;20056;-71
2021/05/08 10:58:14;;;;;;;17.00;5.55;;;;;;;;;;8327380;28;20048;-70
2021/05/08 11:02:41;;;;;;;4.50;2.78;;;;;;;;;;8308883;28;20417;-70
2021/05/08 11:06:45;;;;;;;22.67;7.93;;;;;;;;;;8326889;28;20459;-69
2021/05/08 11:10:57;;;;;;;15.82;5.28;;;;;;;;;;8308481;28;20455;-69
2021/05/08 11:15:02;;;;;;;37.10;10.35;;;;;;;;;;8328181;28;20439;-69
2021/05/08 11:19:22;;;;;;;2.40;1.73;;;;;;;;;;8325496;28;20473;-69
2021/05/08 11:23:39;;;;;;;5.95;2.00;;;;;;;;;;8324167;28;20323;-69
2021/05/08 11:27:44;;;;;;;34.53;9.55;;;;;;;;;;8324717;28;20051;-69
2021/05/08 11:31:53;;;;;;;26.77;7.35;;;;;;;;;;8325379;28;20052;-69
2021/05/08 11:36:04;;;;;;;7.47;3.05;;;;;;;;;;8325109;28;20060;-70
2021/05/08 11:40:09;;;;;;;51.70;17.30;;;;;;;;;;8307178;28;20378;-69
2021/05/08 11:44:31;;;;;;;3.10;1.83;;;;;;;;;;8326040;28;20531;-69
2021/05/08 11:48:35;;;;;;;4.15;2.15;;;;;;;;;;8326260;28;20366;-70
2021/05/08 11:52:49;;;;;;;5.72;2.22;;;;;;;;;;8323966;28;20474;-70
2021/05/08 11:56:55;;;;;;;3.25;1.73;;;;;;;;;;8325260;28;20477;-68
2021/05/08 12:00:59;;;;;;;9.63;3.67;;;;;;;;;;8323230;28;20066;-69
2021/05/08 12:05:04;;;;;;;3.97;1.80;;;;;;;;;;8324848;28;20382;-68
2021/05/08 12:09:11;;;;;;;15.13;6.35;;;;;;;;;;8324226;28;20459;-68
2021/05/08 12:13:15;;;;;;;4.70;2.25;;;;;;;;;;8305671;28;20071;-70
2021/05/08 12:17:20;;;;;;;3.33;1.40;;;;;;;;;;8324800;28;20348;-69
2021/05/08 12:21:25;;;;;;;2.90;2.15;;;;;;;;;;8306959;28;20394;-69
2021/05/08 12:25:35;;;;;;;3.10;1.58;;;;;;;;;;8305033;28;20052;-69
2021/05/08 12:29:58;;;;;;;4.15;2.33;;;;;;;;;;8325794;28;20479;-69
2021/05/08 12:34:15;;;;;;;6.57;1.90;;;;;;;;;;8256326;28;20490;-68
2021/05/08 12:38:22;;;;;;;5.00;2.10;;;;;;;;;;8257902;28;20388;-68
2021/05/08 12:42:46;;;;;;;3.72;2.08;;;;;;;;;;8259295;28;20494;-68
2021/05/08 12:47:03;;;;;;;2.80;1.77;;;;;;;;;;8256171;28;20423;-68
2021/05/08 12:51:27;;;;;;;5.15;1.65;;;;;;;;;;8240562;28;20452;-68
2021/05/08 12:55:37;;;;;;;3.78;1.45;;;;;;;;;;8257278;28;20045;-68
2021/05/08 12:59:41;;;;;;;2.45;1.45;;;;;;;;;;8259108;28;20356;-68
2021/05/08 13:03:46;;;;;;;2.15;1.10;;;;;;;;;;8258419;28;20468;-68
2021/05/08 13:07:59;;;;;;;2.50;1.25;;;;;;;;;;8258891;28;20331;-68
2021/05/08 13:12:13;;;;;;;2.65;1.65;;;;;;;;;;8258545;28;20340;-68
2021/05/08 13:16:18;;;;;;;3.90;2.30;;;;;;;;;;8257676;28;20341;-67
2021/05/08 13:20:23;;;;;;;3.30;2.00;;;;;;;;;;8258299;28;20430;-67
2021/05/08 13:24:29;;;;;;;2.60;1.50;;;;;;;;;;8259102;28;20087;-67
2021/05/08 13:28:33;;;;;;;4.32;2.35;;;;;;;;;;8257424;28;20353;-68
2021/05/08 13:32:37;;;;;;;4.93;2.55;;;;;;;;;;8303077;28;20386;-68
2021/05/08 13:36:44;;;;;;;3.97;2.00;;;;;;;;;;8323523;28;20048;-67
2021/05/08 13:40:48;;;;;;;5.57;2.40;;;;;;;;;;8307310;28;20397;-67
2021/05/08 13:44:54;;;;;;;13.85;2.15;;;;;;;;;;8323763;28;20087;-69
2021/05/08 13:48:59;;;;;;;7.45;2.17;;;;;;;;;;8302535;28;20364;-67
2021/05/08 13:53:04;;;;;;;1.83;1.20;;;;;;;;;;8304742;28;20380;-68
2021/05/08 13:57:09;;;;;;;9.88;3.88;;;;;;;;;;8323676;28;20451;-69
2021/05/08 14:01:14;;;;;;;3.30;1.98;;;;;;;;;;8329596;28;20344;-69
2021/05/08 14:05:18;;;;;;;2.95;1.85;;;;;;;;;;8329290;28;20370;-70
2021/05/08 14:09:22;;;;;;;6.25;3.10;;;;;;;;;;8328693;28;20389;-69
2021/05/08 14:13:29;;;;;;;3.15;1.90;;;;;;;;;;8329009;28;20474;-70
2021/05/08 14:17:34;;;;;;;4.60;2.55;;;;;;;;;;8328903;28;20055;-70
2021/05/08 14:21:45;;;;;;;3.00;1.73;;;;;;;;;;8328773;28;20355;-69
2021/05/08 14:25:50;;;;;;;3.55;1.52;;;;;;;;;;8327559;28;20462;-69
2021/05/08 14:29:54;;;;;;;3.55;2.40;;;;;;;;;;8328041;28;20465;-69
2021/05/08 14:33:57;;;;;;;6.32;2.88;;;;;;;;;;8328114;28;20064;-71
2021/05/08 14:38:05;;;;;;;4.25;2.33;;;;;;;;;;8330628;28;20343;-69
2021/05/08 14:42:08;;;;;;;4.03;2.40;;;;;;;;;;8309442;28;20071;-69
2021/05/08 14:46:13;;;;;;;4.93;1.90;;;;;;;;;;8327028;28;20378;-69
2021/05/08 14:50:19;;;;;;;6.32;2.40;;;;;;;;;;8326590;28;20360;-69
2021/05/08 14:54:24;;;;;;;18.55;8.38;;;;;;;;;;8326955;28;20473;-69
2021/05/08 14:58:35;;;;;;;4.55;2.30;;;;;;;;;;8327151;28;20366;-69
2021/05/08 15:02:40;;;;;;;4.00;1.92;;;;;;;;;;8327409;28;20346;-69
2021/05/08 15:06:44;;;;;;;6.22;2.85;;;;;;;;;;8327143;28;20473;-69
2021/05/08 15:10:50;;;;;;;10.98;5.75;;;;;;;;;;8327000;28;20496;-70
2021/05/08 15:14:54;;;;;;;7.32;3.83;;;;;;;;;;8327166;28;20390;-69
2021/05/08 15:18:59;;;;;;;10.32;4.63;;;;;;;;;;8325718;28;20463;-70
2021/05/08 15:23:06;;;;;;;6.63;3.03;;;;;;;;;;8308250;28;20435;-70
2021/05/08 15:27:10;;;;;;;4.47;2.65;;;;;;;;;;8328848;28;20662;-69
2021/05/08 15:31:15;;;;;;;8.82;4.85;;;;;;;;;;8325320;28;20466;-69
2021/05/08 15:35:19;;;;;;;4.72;2.53;;;;;;;;;;8325399;28;20467;-70
2021/05/08 15:39:24;;;;;;;23.77;12.73;;;;;;;;;;8327745;28;20056;-69
2021/05/08 15:43:29;;;;;;;7.78;3.83;;;;;;;;;;8326357;28;20462;-68
2021/05/08 15:47:33;;;;;;;9.10;2.60;;;;;;;;;;8325807;28;20483;-69
2021/05/08 15:51:37;;;;;;;7.60;3.08;;;;;;;;;;8307759;28;20455;-69
2021/05/08 15:55:41;;;;;;;16.33;3.67;;;;;;;;;;8325832;28;20360;-68
2021/05/08 15:59:45;;;;;;;9.05;2.92;;;;;;;;;;8325238;28;20470;-69
2021/05/08 16:03:50;;;;;;;3.65;2.30;;;;;;;;;;8325769;28;20059;-71
2021/05/08 16:07:55;;;;;;;6.18;2.67;;;;;;;;;;8326120;28;20371;-71
2021/05/08 16:11:59;;;;;;;8.68;4.10;;;;;;;;;;8324499;28;20367;-70
2021/05/08 16:16:04;;;;;;;5.65;3.13;;;;;;;;;;8325259;28;20443;-70
2021/05/08 16:20:09;;;;;;;10.70;3.08;;;;;;;;;;8326343;28;20367;-69
2021/05/08 16:24:13;;;;;;;3.05;2.33;;;;;;;;;;8306438;28;20074;-68
2021/05/08 16:28:17;;;;;;;4.88;2.22;;;;;;;;;;8306342;28;20055;-68
2021/05/08 16:32:21;;;;;;;8.63;4.25;;;;;;;;;;8323812;28;20374;-68
2021/05/08 16:36:26;;;;;;;18.83;7.63;;;;;;;;;;8323605;28;20475;-69
2021/05/08 16:40:30;;;;;;;16.25;6.75;;;;;;;;;;8324729;28;20371;-69
2021/05/08 16:44:35;;;;;;;8.02;4.30;;;;;;;;;;8324142;28;20455;-68
2021/05/08 16:48:41;;;;;;;11.43;5.30;;;;;;;;;;8323282;28;20382;-70
2021/05/08 16:52:50;;;;;;;9.43;4.75;;;;;;;;;;8324214;28;20478;-70
2021/05/08 16:56:54;;;;;;;10.55;4.97;;;;;;;;;;8324084;28;20454;-68
2021/05/08 17:00:59;;;;;;;7.22;3.60;;;;;;;;;;8323168;28;20399;-68
2021/05/08 17:05:05;;;;;;;7.82;3.50;;;;;;;;;;8323480;28;20486;-68
2021/05/08 17:09:09;;;;;;;10.82;5.45;;;;;;;;;;8323615;28;20372;-69
2021/05/08 17:13:13;;;;;;;10.13;3.78;;;;;;;;;;8322521;28;20447;-68
2021/05/08 17:17:19;;;;;;;9.05;4.75;;;;;;;;;;8305534;28;20467;-68
2021/05/08 17:21:24;;;;;;;10.73;4.40;;;;;;;;;;8322471;28;20044;-70
2021/05/08 17:25:28;;;;;;;26.67;14.48;;;;;;;;;;8322051;28;20074;-68
2021/05/08 17:29:32;;;;;;;49.50;23.38;;;;;;;;;;8323079;28;20466;-67
2021/05/08 17:33:37;;;;;;;17.98;10.70;;;;;;;;;;8326243;28;20462;-68
2021/05/08 17:37:42;;;;;;;20.77;9.45;;;;;;;;;;8329523;28;20383;-67
2021/05/08 17:41:46;;;;;;;15.85;8.85;;;;;;;;;;8327020;28;20467;-68
2021/05/08 17:45:51;;;;;;;21.48;10.70;;;;;;;;;;8328077;28;20114;-68
2021/05/08 17:49:56;;;;;;;33.92;15.88;;;;;;;;;;8329316;28;20463;-68
2021/05/08 17:54:01;;;;;;;31.98;14.75;;;;;;;;;;8330814;28;20476;-68
2021/05/08 17:58:05;;;;;;;22.98;11.15;;;;;;;;;;8328566;28;20486;-69
2021/05/08 18:02:12;;;;;;;19.52;9.43;;;;;;;;;;8328984;28;20075;-69
2021/05/08 18:06:17;;;;;;;60.33;29.42;;;;;;;;;;8328622;28;20401;-69
2021/05/08 18:10:22;;;;;;;34.42;14.45;;;;;;;;;;8328335;28;20351;-68
2021/05/08 18:14:26;;;;;;;28.58;16.55;;;;;;;;;;8328494;28;20390;-68
2021/05/08 18:18:31;;;;;;;17.35;8.25;;;;;;;;;;8328145;28;20060;-68
2021/05/08 18:22:35;;;;;;;7.55;3.53;;;;;;;;;;8327126;28;20473;-68
2021/05/08 18:26:40;;;;;;;7.28;3.45;;;;;;;;;;8328078;28;20584;-68
2021/05/08 18:30:45;;;;;;;9.20;3.60;;;;;;;;;;8328276;28;20371;-68
2021/05/08 18:34:49;;;;;;;7.68;3.90;;;;;;;;;;8325991;28;20462;-68
2021/05/08 18:38:54;;;;;;;15.15;6.28;;;;;;;;;;8328295;28;20078;-69
2021/05/08 18:42:59;;;;;;;25.95;10.40;;;;;;;;;;8325847;28;20056;-69
2021/05/08 18:47:04;;;;;;;27.25;9.95;;;;;;;;;;8327371;28;20465;-69
2021/05/08 18:51:11;;;;;;;18.17;7.88;;;;;;;;;;8327877;28;20421;-69
2021/05/08 18:55:16;;;;;;;20.23;7.57;;;;;;;;;;8330594;28;20452;-68
2021/05/08 18:59:20;;;;;;;16.48;8.50;;;;;;;;;;8328978;28;20509;-70
2021/05/08 19:03:25;;;;;;;30.05;12.20;;;;;;;;;;8326895;28;20501;-68
2021/05/08 19:07:29;;;;;;;25.63;10.82;;;;;;;;;;8327033;28;20390;-68
2021/05/08 19:11:34;;;;;;;34.28;12.48;;;;;;;;;;8309798;28;20048;-69
2021/05/08 19:15:39;;;;;;;37.90;14.07;;;;;;;;;;8327199;28;20520;-68
2021/05/08 19:19:45;;;;;;;55.28;21.98;;;;;;;;;;8309744;28;20490;-69
2021/05/08 19:23:49;;;;;;;87.75;40.67;;;;;;;;;;8326720;28;20336;-68
2021/05/08 19:27:54;;;;;;;39.92;19.40;;;;;;;;;;8326228;28;20401;-68
2021/05/08 19:31:58;;;;;;;37.10;18.33;;;;;;;;;;8325658;28;20390;-71
2021/05/08 19:36:02;;;;;;;40.13;22.00;;;;;;;;;;8326669;28;20443;-68
2021/05/08 19:40:08;;;;;;;36.70;20.23;;;;;;;;;;8325872;28;20421;-69
2021/05/08 19:44:16;;;;;;;32.53;15.38;;;;;;;;;;8325184;28;20371;-69
2021/05/08 19:48:21;;;;;;;30.70;15.13;;;;;;;;;;8325619;28;20378;-69
2021/05/08 19:52:27;;;;;;;61.83;24.92;;;;;;;;;;8327735;28;20329;-70
2021/05/08 19:56:32;;;;;;;78.68;30.65;;;;;;;;;;8307535;28;20336;-70
2021/05/08 20:00:37;;;;;;;64.32;29.98;;;;;;;;;;8324947;28;20413;-70
2021/05/08 20:04:41;;;;;;;58.45;23.65;;;;;;;;;;8324351;28;20470;-70
2021/05/08 20:08:46;;;;;;;99.07;41.75;;;;;;;;;;8324709;28;20512;-69
2021/05/08 20:12:50;;;;;;;41.75;19.25;;;;;;;;;;8325086;28;20477;-68
2021/05/08 20:16:55;;;;;;;30.80;13.90;;;;;;;;;;8324696;28;20389;-68
2021/05/08 20:21:01;;;;;;;39.30;17.42;;;;;;;;;;8307414;28;20048;-70
2021/05/08 20:25:06;;;;;;;49.30;20.95;;;;;;;;;;8325898;28;20478;-72
2021/05/08 20:29:10;;;;;;;99.60;42.88;;;;;;;;;;8325180;28;20532;-70
2021/05/08 20:33:15;;;;;;;34.15;15.73;;;;;;;;;;8323683;28;20489;-71
2021/05/08 20:37:22;;;;;;;36.38;16.08;;;;;;;;;;8307683;28;20332;-71
2021/05/08 20:41:25;;;;;;;40.17;19.80;;;;;;;;;;8324588;28;20397;-71
2021/05/08 20:45:31;;;;;;;37.80;18.75;;;;;;;;;;8316144;28;20070;-70
2021/05/08 20:49:35;;;;;;;82.45;32.35;;;;;;;;;;8307309;28;20509;-70
2021/05/08 20:53:39;;;;;;;46.75;19.90;;;;;;;;;;8323580;28;20467;-69
2021/05/08 20:57:46;;;;;;;41.42;18.50;;;;;;;;;;8323716;28;20451;-69
2021/05/08 21:01:50;;;;;;;39.60;15.77;;;;;;;;;;8325151;28;20083;-70
2021/05/08 21:05:55;;;;;;;37.83;16.50;;;;;;;;;;8306962;28;20363;-70
2021/05/08 21:09:59;;;;;;;34.63;16.70;;;;;;;;;;8324061;28;20448;-70
2021/05/08 21:14:04;;;;;;;41.05;18.02;;;;;;;;;;8324513;28;20402;-70
2021/05/08 21:18:07;;;;;;;38.97;16.00;;;;;;;;;;8305915;28;20395;-69
2021/05/08 21:22:11;;;;;;;37.92;16.27;;;;;;;;;;8322075;28;20504;-69
2021/05/08 21:26:17;;;;;;;34.13;14.90;;;;;;;;;;8323020;28;20643;-69
2021/05/08 21:30:21;;;;;;;52.95;21.50;;;;;;;;;;8305380;28;20472;-69
2021/05/08 21:34:27;;;;;;;45.72;19.33;;;;;;;;;;8323195;28;20404;-70
2021/05/08 21:38:30;;;;;;;44.35;18.08;;;;;;;;;;8322773;28;20371;-69
2021/05/08 21:42:37;;;;;;;44.97;18.23;;;;;;;;;;8323541;28;20382;-68
2021/05/08 21:46:42;;;;;;;45.38;18.35;;;;;;;;;;8323181;28;20455;-71
2021/05/08 21:50:47;;;;;;;55.80;22.02;;;;;;;;;;8322556;28;20382;-69
2021/05/08 21:54:51;;;;;;;48.97;21.73;;;;;;;;;;8322865;28;20473;-70
2021/05/08 21:58:56;;;;;;;38.13;16.63;;;;;;;;;;8322968;28;20405;-70
2021/05/08 22:03:05;;;;;;;41.15;17.70;;;;;;;;;;8323266;28;20070;-69
2021/05/08 22:07:12;;;;;;;34.83;15.77;;;;;;;;;;8322948;28;20360;-69
2021/05/08 22:11:18;;;;;;;31.05;15.02;;;;;;;;;;8323606;28;20505;-69
2021/05/08 22:15:23;;;;;;;32.40;14.35;;;;;;;;;;8321943;28;20443;-69
2021/05/08 22:19:31;;;;;;;33.53;14.27;;;;;;;;;;8325092;28;20388;-71
2021/05/08 22:23:36;;;;;;;42.03;15.82;;;;;;;;;;8328103;28;20066;-71
2021/05/08 22:27:41;;;;;;;37.78;16.40;;;;;;;;;;8310115;28;20455;-70
2021/05/08 22:31:45;;;;;;;33.65;15.23;;;;;;;;;;8327668;28;20364;-69
2021/05/08 22:35:50;;;;;;;37.08;15.43;;;;;;;;;;8328724;28;20052;-69
2021/05/08 22:39:55;;;;;;;41.05;16.50;;;;;;;;;;8310676;28;20498;-69
2021/05/08 22:44:02;;;;;;;41.42;15.80;;;;;;;;;;8309524;28;20378;-70
2021/05/08 22:48:07;;;;;;;41.47;16.08;;;;;;;;;;8325453;28;20504;-71
2021/05/08 22:52:11;;;;;;;33.92;14.27;;;;;;;;;;8327068;28;20360;-69
2021/05/08 22:56:18;;;;;;;37.30;16.50;;;;;;;;;;8328897;28;20462;-70
2021/05/08 23:00:24;;;;;;;38.58;16.25;;;;;;;;;;8327758;28;20343;-69
2021/05/08 23:04:29;;;;;;;33.53;15.00;;;;;;;;;;8328745;28;20342;-71
2021/05/08 23:08:36;;;;;;;39.25;16.05;;;;;;;;;;8327174;28;20056;-69
2021/05/08 23:12:41;;;;;;;42.38;15.27;;;;;;;;;;8308800;28;20390;-69
2021/05/08 23:16:45;;;;;;;189.45;64.07;;;;;;;;;;8308245;28;20360;-70
2021/05/08 23:20:50;;;;;;;79.00;28.98;;;;;;;;;;8328163;28;20394;-69
2021/05/08 23:24:55;;;;;;;63.60;23.88;;;;;;;;;;8327215;28;20074;-69
2021/05/08 23:28:59;;;;;;;31.75;14.05;;;;;;;;;;8327656;28;20481;-69
2021/05/08 23:33:03;;;;;;;34.38;13.70;;;;;;;;;;8327332;28;20455;-69
2021/05/08 23:37:07;;;;;;;120.35;43.25;;;;;;;;;;8307828;28;20360;-70
2021/05/08 23:41:12;;;;;;;62.80;24.48;;;;;;;;;;8324813;28;20370;-69
2021/05/08 23:45:17;;;;;;;64.28;24.13;;;;;;;;;;8326390;28;20620;-69
2021/05/08 23:49:22;;;;;;;42.08;17.42;;;;;;;;;;8326999;28;20463;-68
2021/05/08 23:53:27;;;;;;;37.50;16.33;;;;;;;;;;8323626;28;20370;-70
2021/05/08 23:57:35;;;;;;;52.63;19.92;;;;;;;;;;8325515;28;20052;-68
